sensor_id;sensor_type;location;lat;lon;timestamp;temperature;humidity
14008;DHT22;61651;45.508;12.232;2023-02-03T00:01:54;6.20;99.90
14008;DHT22;61651;45.508;12.232;2023-02-03T00:04:56;6.20;99.90
14008;DHT22;61651;45.508;12.232;2023-02-03T00:07:58;6.30;99.90
14008;DHT22;61651;45.508;12.232;2023-02-03T00:11:00;6.30;99.90
14008;DHT22;61651;45.508;12.232;2023-02-03T00:14:04;6.30;99.90
14008;DHT22;61651;45.508;12.232;2023-02-03T00:17:07;6.20;99.90
14008;DHT22;61651;45.508;12.232;2023-02-03T00:20:10;6.10;99.90
14008;DHT22;61651;45.508;12.232;2023-02-03T00:23:12;6.10;99.90
14008;DHT22;61651;45.508;12.232;2023-02-03T00:26:16;5.90;99.90
14008;DHT22;61651;45.508;12.232;2023-02-03T00:29:19;5.90;99.90
14008;DHT22;61651;45.508;12.232;2023-02-03T00:32:25;5.90;99.90
14008;DHT22;61651;45.508;12.232;2023-02-03T00:35:27;5.90;99.90
14008;DHT22;61651;45.508;12.232;2023-02-03T00:38:29;6.00;99.90
14008;DHT22;61651;45.508;12.232;2023-02-03T00:41:31;6.00;99.90
14008;DHT22;61651;45.508;12.232;2023-02-03T00:44:34;6.00;99.90
14008;DHT22;61651;45.508;12.232;2023-02-03T00:47:36;6.00;99.90
14008;DHT22;61651;45.508;12.232;2023-02-03T00:50:38;5.60;99.90
14008;DHT22;61651;45.508;12.232;2023-02-03T00:53:40;5.70;99.90
14008;DHT22;61651;45.508;12.232;2023-02-03T00:56:42;5.80;99.90
14008;DHT22;61651;45.508;12.232;2023-02-03T00:59:45;5.90;99.90
14008;DHT22;61651;45.508;12.232;2023-02-03T01:02:47;6.00;99.90
14008;DHT22;61651;45.508;12.232;2023-02-03T01:05:49;6.00;99.90
14008;DHT22;61651;45.508;12.232;2023-02-03T01:08:51;5.90;99.90
14008;DHT22;61651;45.508;12.232;2023-02-03T01:11:53;5.90;99.90
14008;DHT22;61651;45.508;12.232;2023-02-03T01:14:57;5.80;99.90
14008;DHT22;61651;45.508;12.232;2023-02-03T01:17:59;5.90;99.90
14008;DHT22;61651;45.508;12.232;2023-02-03T01:21:05;5.90;99.90
14008;DHT22;61651;45.508;12.232;2023-02-03T01:24:07;5.90;99.90
14008;DHT22;61651;45.508;12.232;2023-02-03T01:27:10;5.90;99.90
14008;DHT22;61651;45.508;12.232;2023-02-03T01:30:14;5.90;99.90
14008;DHT22;61651;45.508;12.232;2023-02-03T01:33:16;5.80;99.90
14008;DHT22;61651;45.508;12.232;2023-02-03T01:36:17;5.80;99.90
14008;DHT22;61651;45.508;12.232;2023-02-03T01:39:19;5.80;99.90
14008;DHT22;61651;45.508;12.232;2023-02-03T01:42:21;5.80;99.90
14008;DHT22;61651;45.508;12.232;2023-02-03T01:45:25;5.90;99.90
14008;DHT22;61651;45.508;12.232;2023-02-03T01:48:27;5.80;99.90
14008;DHT22;61651;45.508;12.232;2023-02-03T01:51:30;5.90;99.90
14008;DHT22;61651;45.508;12.232;2023-02-03T01:54:35;5.90;99.90
14008;DHT22;61651;45.508;12.232;2023-02-03T01:57:41;5.90;99.90
14008;DHT22;61651;45.508;12.232;2023-02-03T02:00:46;6.00;99.90
14008;DHT22;61651;45.508;12.232;2023-02-03T02:03:54;6.00;99.90
14008;DHT22;61651;45.508;12.232;2023-02-03T02:06:57;6.00;99.90
14008;DHT22;61651;45.508;12.232;2023-02-03T02:09:59;6.00;99.90
14008;DHT22;61651;45.508;12.232;2023-02-03T02:13:02;6.00;99.90
14008;DHT22;61651;45.508;12.232;2023-02-03T02:16:11;6.10;99.90
14008;DHT22;61651;45.508;12.232;2023-02-03T02:19:35;6.10;99.90
14008;DHT22;61651;45.508;12.232;2023-02-03T02:22:56;6.10;99.90
14008;DHT22;61651;45.508;12.232;2023-02-03T02:26:32;6.20;99.90
14008;DHT22;61651;45.508;12.232;2023-02-03T02:30:09;6.20;99.90
14008;DHT22;61651;45.508;12.232;2023-02-03T02:33:19;6.00;99.90
14008;DHT22;61651;45.508;12.232;2023-02-03T02:36:29;6.10;99.90
14008;DHT22;61651;45.508;12.232;2023-02-03T02:39:37;6.20;99.90
14008;DHT22;61651;45.508;12.232;2023-02-03T02:42:49;6.40;99.90
14008;DHT22;61651;45.508;12.232;2023-02-03T02:46:00;6.50;99.90
14008;DHT22;61651;45.508;12.232;2023-02-03T02:49:09;6.50;99.90
14008;DHT22;61651;45.508;12.232;2023-02-03T02:52:16;6.50;99.90
14008;DHT22;61651;45.508;12.232;2023-02-03T02:55:22;6.50;99.90
14008;DHT22;61651;45.508;12.232;2023-02-03T02:58:26;6.50;99.90
14008;DHT22;61651;45.508;12.232;2023-02-03T03:01:28;6.60;99.90
14008;DHT22;61651;45.508;12.232;2023-02-03T03:04:33;6.60;99.90
14008;DHT22;61651;45.508;12.232;2023-02-03T03:07:39;6.50;99.90
14008;DHT22;61651;45.508;12.232;2023-02-03T03:10:45;6.50;99.90
14008;DHT22;61651;45.508;12.232;2023-02-03T03:13:51;6.60;99.90
14008;DHT22;61651;45.508;12.232;2023-02-03T03:16:58;6.60;99.90
14008;DHT22;61651;45.508;12.232;2023-02-03T03:20:05;6.70;99.90
14008;DHT22;61651;45.508;12.232;2023-02-03T03:23:13;6.70;99.90
14008;DHT22;61651;45.508;12.232;2023-02-03T03:26:21;6.60;99.90
14008;DHT22;61651;45.508;12.232;2023-02-03T03:29:30;6.60;99.90
14008;DHT22;61651;45.508;12.232;2023-02-03T03:32:34;6.70;99.90
14008;DHT22;61651;45.508;12.232;2023-02-03T03:35:42;6.70;99.90
14008;DHT22;61651;45.508;12.232;2023-02-03T03:38:52;6.70;99.90
14008;DHT22;61651;45.508;12.232;2023-02-03T03:42:00;6.70;99.90
14008;DHT22;61651;45.508;12.232;2023-02-03T03:45:06;6.40;99.90
14008;DHT22;61651;45.508;12.232;2023-02-03T03:48:13;6.40;99.90
14008;DHT22;61651;45.508;12.232;2023-02-03T03:51:21;6.40;99.90
14008;DHT22;61651;45.508;12.232;2023-02-03T03:54:25;6.60;99.90
14008;DHT22;61651;45.508;12.232;2023-02-03T03:57:32;6.80;99.90
14008;DHT22;61651;45.508;12.232;2023-02-03T04:00:38;6.80;99.90
14008;DHT22;61651;45.508;12.232;2023-02-03T04:03:44;6.90;99.90
14008;DHT22;61651;45.508;12.232;2023-02-03T04:06:48;6.90;99.90
14008;DHT22;61651;45.508;12.232;2023-02-03T04:09:50;6.80;99.90
14008;DHT22;61651;45.508;12.232;2023-02-03T04:12:52;6.70;99.90
14008;DHT22;61651;45.508;12.232;2023-02-03T04:15:54;6.70;99.90
14008;DHT22;61651;45.508;12.232;2023-02-03T04:18:56;6.50;99.90
14008;DHT22;61651;45.508;12.232;2023-02-03T04:22:00;6.30;99.90
14008;DHT22;61651;45.508;12.232;2023-02-03T04:25:02;6.00;99.90
14008;DHT22;61651;45.508;12.232;2023-02-03T04:28:04;5.90;99.90
14008;DHT22;61651;45.508;12.232;2023-02-03T04:31:06;6.00;99.90
14008;DHT22;61651;45.508;12.232;2023-02-03T04:34:08;6.20;99.90
14008;DHT22;61651;45.508;12.232;2023-02-03T04:37:12;6.10;99.90
14008;DHT22;61651;45.508;12.232;2023-02-03T04:40:14;6.20;99.90
14008;DHT22;61651;45.508;12.232;2023-02-03T04:43:16;6.10;99.90
14008;DHT22;61651;45.508;12.232;2023-02-03T04:46:18;6.10;99.90
14008;DHT22;61651;45.508;12.232;2023-02-03T04:49:20;6.10;99.90
14008;DHT22;61651;45.508;12.232;2023-02-03T04:52:24;6.10;99.90
14008;DHT22;61651;45.508;12.232;2023-02-03T04:55:26;6.10;99.90
14008;DHT22;61651;45.508;12.232;2023-02-03T04:58:28;6.00;99.90
14008;DHT22;61651;45.508;12.232;2023-02-03T05:01:30;6.00;99.90
14008;DHT22;61651;45.508;12.232;2023-02-03T05:04:32;5.90;99.90
14008;DHT22;61651;45.508;12.232;2023-02-03T05:07:35;6.00;99.90
14008;DHT22;61651;45.508;12.232;2023-02-03T05:10:38;6.00;99.90
14008;DHT22;61651;45.508;12.232;2023-02-03T05:13:40;6.10;99.90
14008;DHT22;61651;45.508;12.232;2023-02-03T05:16:42;6.10;99.90
14008;DHT22;61651;45.508;12.232;2023-02-03T05:19:44;6.20;99.90
14008;DHT22;61651;45.508;12.232;2023-02-03T05:22:47;6.20;99.90
14008;DHT22;61651;45.508;12.232;2023-02-03T05:25:49;6.10;99.90
14008;DHT22;61651;45.508;12.232;2023-02-03T05:28:51;6.20;99.90
14008;DHT22;61651;45.508;12.232;2023-02-03T05:31:53;6.20;99.90
14008;DHT22;61651;45.508;12.232;2023-02-03T05:34:55;6.30;99.90
14008;DHT22;61651;45.508;12.232;2023-02-03T05:37:59;6.40;99.90
14008;DHT22;61651;45.508;12.232;2023-02-03T05:41:01;6.40;99.90
14008;DHT22;61651;45.508;12.232;2023-02-03T05:44:20;6.40;99.90
14008;DHT22;61651;45.508;12.232;2023-02-03T05:47:23;6.40;99.90
14008;DHT22;61651;45.508;12.232;2023-02-03T05:50:25;6.40;99.90
14008;DHT22;61651;45.508;12.232;2023-02-03T05:53:31;6.30;99.90
14008;DHT22;61651;45.508;12.232;2023-02-03T05:56:33;6.00;99.90
14008;DHT22;61651;45.508;12.232;2023-02-03T05:59:35;6.20;99.90
14008;DHT22;61651;45.508;12.232;2023-02-03T06:02:37;6.20;99.90
14008;DHT22;61651;45.508;12.232;2023-02-03T06:05:39;6.30;99.90
14008;DHT22;61651;45.508;12.232;2023-02-03T06:08:44;6.40;99.90
14008;DHT22;61651;45.508;12.232;2023-02-03T06:11:46;6.40;99.90
14008;DHT22;61651;45.508;12.232;2023-02-03T06:14:48;6.50;99.90
14008;DHT22;61651;45.508;12.232;2023-02-03T06:17:50;6.50;99.90
14008;DHT22;61651;45.508;12.232;2023-02-03T06:20:52;6.50;99.90
14008;DHT22;61651;45.508;12.232;2023-02-03T06:23:56;6.40;99.90
14008;DHT22;61651;45.508;12.232;2023-02-03T06:26:58;6.40;99.90
14008;DHT22;61651;45.508;12.232;2023-02-03T06:30:00;6.40;99.90
14008;DHT22;61651;45.508;12.232;2023-02-03T06:33:02;6.50;99.90
14008;DHT22;61651;45.508;12.232;2023-02-03T06:36:04;6.60;99.90
14008;DHT22;61651;45.508;12.232;2023-02-03T06:39:08;6.70;99.90
14008;DHT22;61651;45.508;12.232;2023-02-03T06:42:12;6.50;99.90
14008;DHT22;61651;45.508;12.232;2023-02-03T06:45:14;6.50;99.90
14008;DHT22;61651;45.508;12.232;2023-02-03T06:48:16;6.60;99.90
14008;DHT22;61651;45.508;12.232;2023-02-03T06:51:18;6.60;99.90
14008;DHT22;61651;45.508;12.232;2023-02-03T06:54:22;6.50;99.90
14008;DHT22;61651;45.508;12.232;2023-02-03T06:57:23;6.30;99.90
14008;DHT22;61651;45.508;12.232;2023-02-03T07:00:25;6.40;99.90
14008;DHT22;61651;45.508;12.232;2023-02-03T07:03:28;6.40;99.90
14008;DHT22;61651;45.508;12.232;2023-02-03T07:06:30;6.50;99.90
14008;DHT22;61651;45.508;12.232;2023-02-03T07:09:35;6.60;99.90
14008;DHT22;61651;45.508;12.232;2023-02-03T07:12:36;6.50;99.90
14008;DHT22;61651;45.508;12.232;2023-02-03T07:15:38;6.60;99.90
14008;DHT22;61651;45.508;12.232;2023-02-03T07:18:40;6.60;99.90
14008;DHT22;61651;45.508;12.232;2023-02-03T07:21:42;6.70;99.90
14008;DHT22;61651;45.508;12.232;2023-02-03T07:24:46;6.70;99.90
14008;DHT22;61651;45.508;12.232;2023-02-03T07:27:48;6.80;99.90
14008;DHT22;61651;45.508;12.232;2023-02-03T07:30:50;6.90;99.90
14008;DHT22;61651;45.508;12.232;2023-02-03T07:33:52;7.00;99.90
14008;DHT22;61651;45.508;12.232;2023-02-03T07:36:54;7.10;99.90
14008;DHT22;61651;45.508;12.232;2023-02-03T07:39:57;7.10;99.90
14008;DHT22;61651;45.508;12.232;2023-02-03T07:42:59;7.20;99.90
14008;DHT22;61651;45.508;12.232;2023-02-03T07:46:01;7.20;99.90
14008;DHT22;61651;45.508;12.232;2023-02-03T07:49:03;7.20;99.90
14008;DHT22;61651;45.508;12.232;2023-02-03T07:52:05;7.20;99.90
14008;DHT22;61651;45.508;12.232;2023-02-03T07:55:09;7.30;99.90
14008;DHT22;61651;45.508;12.232;2023-02-03T07:58:11;7.40;99.90
14008;DHT22;61651;45.508;12.232;2023-02-03T08:01:15;7.50;99.90
14008;DHT22;61651;45.508;12.232;2023-02-03T08:04:17;7.60;99.90
14008;DHT22;61651;45.508;12.232;2023-02-03T08:07:20;7.70;99.90
14008;DHT22;61651;45.508;12.232;2023-02-03T08:10:23;7.70;99.90
14008;DHT22;61651;45.508;12.232;2023-02-03T08:13:25;7.80;99.90
14008;DHT22;61651;45.508;12.232;2023-02-03T08:16:27;7.90;99.90
14008;DHT22;61651;45.508;12.232;2023-02-03T08:19:30;8.00;99.90
14008;DHT22;61651;45.508;12.232;2023-02-03T08:22:32;8.00;99.90
14008;DHT22;61651;45.508;12.232;2023-02-03T08:25:35;8.10;99.90
14008;DHT22;61651;45.508;12.232;2023-02-03T08:28:37;8.20;99.90
14008;DHT22;61651;45.508;12.232;2023-02-03T08:31:41;8.20;99.90
14008;DHT22;61651;45.508;12.232;2023-02-03T08:34:45;8.30;99.90
14008;DHT22;61651;45.508;12.232;2023-02-03T08:37:47;8.30;99.90
14008;DHT22;61651;45.508;12.232;2023-02-03T08:40:50;8.30;99.90
14008;DHT22;61651;45.508;12.232;2023-02-03T08:43:52;8.40;99.90
14008;DHT22;61651;45.508;12.232;2023-02-03T08:46:55;8.30;99.90
14008;DHT22;61651;45.508;12.232;2023-02-03T08:49:57;8.40;99.90
14008;DHT22;61651;45.508;12.232;2023-02-03T08:52:59;8.50;99.90
14008;DHT22;61651;45.508;12.232;2023-02-03T08:56:05;8.50;99.90
14008;DHT22;61651;45.508;12.232;2023-02-03T08:59:07;8.60;99.90
14008;DHT22;61651;45.508;12.232;2023-02-03T09:02:14;8.60;99.90
14008;DHT22;61651;45.508;12.232;2023-02-03T09:05:17;8.80;99.90
14008;DHT22;61651;45.508;12.232;2023-02-03T09:08:19;8.80;99.90
14008;DHT22;61651;45.508;12.232;2023-02-03T09:11:22;9.00;99.90
14008;DHT22;61651;45.508;12.232;2023-02-03T09:14:24;9.00;99.90
14008;DHT22;61651;45.508;12.232;2023-02-03T09:17:26;9.00;99.90
14008;DHT22;61651;45.508;12.232;2023-02-03T09:20:28;9.00;99.90
14008;DHT22;61651;45.508;12.232;2023-02-03T09:23:30;9.10;99.90
14008;DHT22;61651;45.508;12.232;2023-02-03T09:26:33;9.20;99.90
14008;DHT22;61651;45.508;12.232;2023-02-03T09:29:35;9.30;99.90
14008;DHT22;61651;45.508;12.232;2023-02-03T09:32:37;9.20;99.90
14008;DHT22;61651;45.508;12.232;2023-02-03T09:35:39;9.20;99.90
14008;DHT22;61651;45.508;12.232;2023-02-03T09:38:41;9.30;99.90
14008;DHT22;61651;45.508;12.232;2023-02-03T09:42:03;9.30;99.90
14008;DHT22;61651;45.508;12.232;2023-02-03T09:45:16;9.50;99.90
14008;DHT22;61651;45.508;12.232;2023-02-03T09:48:21;9.60;99.90
14008;DHT22;61651;45.508;12.232;2023-02-03T09:51:28;9.70;99.90
14008;DHT22;61651;45.508;12.232;2023-02-03T09:54:36;9.70;99.90
14008;DHT22;61651;45.508;12.232;2023-02-03T09:57:51;9.80;99.90
14008;DHT22;61651;45.508;12.232;2023-02-03T10:00:58;9.90;99.90
14008;DHT22;61651;45.508;12.232;2023-02-03T10:04:04;10.00;99.90
14008;DHT22;61651;45.508;12.232;2023-02-03T10:07:18;10.00;99.90
14008;DHT22;61651;45.508;12.232;2023-02-03T10:10:35;10.00;99.90
14008;DHT22;61651;45.508;12.232;2023-02-03T10:13:47;10.10;99.90
14008;DHT22;61651;45.508;12.232;2023-02-03T10:16:59;10.20;99.90
14008;DHT22;61651;45.508;12.232;2023-02-03T10:20:13;10.30;99.90
14008;DHT22;61651;45.508;12.232;2023-02-03T10:23:21;10.40;99.90
14008;DHT22;61651;45.508;12.232;2023-02-03T10:26:26;10.50;99.90
14008;DHT22;61651;45.508;12.232;2023-02-03T10:29:34;10.60;99.90
14008;DHT22;61651;45.508;12.232;2023-02-03T10:32:39;10.70;99.90
14008;DHT22;61651;45.508;12.232;2023-02-03T10:35:47;10.80;99.90
14008;DHT22;61651;45.508;12.232;2023-02-03T10:38:55;10.80;99.90
14008;DHT22;61651;45.508;12.232;2023-02-03T10:42:00;10.90;99.90
14008;DHT22;61651;45.508;12.232;2023-02-03T10:45:05;11.10;99.90
14008;DHT22;61651;45.508;12.232;2023-02-03T10:48:14;11.20;99.90
14008;DHT22;61651;45.508;12.232;2023-02-03T10:51:20;11.30;99.90
14008;DHT22;61651;45.508;12.232;2023-02-03T10:54:29;11.40;99.90
14008;DHT22;61651;45.508;12.232;2023-02-03T10:57:34;11.40;99.90
14008;DHT22;61651;45.508;12.232;2023-02-03T11:00:40;11.50;99.90
14008;DHT22;61651;45.508;12.232;2023-02-03T11:03:44;11.50;99.90
14008;DHT22;61651;45.508;12.232;2023-02-03T11:06:56;11.50;99.90
14008;DHT22;61651;45.508;12.232;2023-02-03T11:09:58;11.60;99.90
14008;DHT22;61651;45.508;12.232;2023-02-03T11:13:18;11.70;99.90
14008;DHT22;61651;45.508;12.232;2023-02-03T11:16:22;11.70;99.90
14008;DHT22;61651;45.508;12.232;2023-02-03T11:19:25;11.70;99.90
14008;DHT22;61651;45.508;12.232;2023-02-03T11:22:29;11.70;99.90
14008;DHT22;61651;45.508;12.232;2023-02-03T11:25:32;11.80;99.90
14008;DHT22;61651;45.508;12.232;2023-02-03T11:28:35;12.00;99.90
14008;DHT22;61651;45.508;12.232;2023-02-03T11:31:38;12.00;99.90
14008;DHT22;61651;45.508;12.232;2023-02-03T11:34:46;12.10;99.90
14008;DHT22;61651;45.508;12.232;2023-02-03T11:37:51;12.20;99.90
14008;DHT22;61651;45.508;12.232;2023-02-03T11:40:58;12.20;99.90
14008;DHT22;61651;45.508;12.232;2023-02-03T11:44:09;12.30;99.90
14008;DHT22;61651;45.508;12.232;2023-02-03T11:47:14;12.50;99.90
14008;DHT22;61651;45.508;12.232;2023-02-03T11:50:25;12.70;99.90
14008;DHT22;61651;45.508;12.232;2023-02-03T11:53:36;12.70;99.90
14008;DHT22;61651;45.508;12.232;2023-02-03T11:57:05;12.70;99.90
14008;DHT22;61651;45.508;12.232;2023-02-03T12:00:21;12.80;99.90
14008;DHT22;61651;45.508;12.232;2023-02-03T12:03:49;13.10;99.90
14008;DHT22;61651;45.508;12.232;2023-02-03T12:07:11;13.20;99.90
14008;DHT22;61651;45.508;12.232;2023-02-03T12:10:32;13.30;99.90
14008;DHT22;61651;45.508;12.232;2023-02-03T12:14:03;13.40;99.90
14008;DHT22;61651;45.508;12.232;2023-02-03T12:17:22;13.50;99.90
14008;DHT22;61651;45.508;12.232;2023-02-03T12:20:43;13.60;99.90
14008;DHT22;61651;45.508;12.232;2023-02-03T12:23:55;13.50;99.90
14008;DHT22;61651;45.508;12.232;2023-02-03T12:27:09;13.50;99.90
14008;DHT22;61651;45.508;12.232;2023-02-03T12:30:16;13.60;99.90
14008;DHT22;61651;45.508;12.232;2023-02-03T12:33:26;13.60;99.90
14008;DHT22;61651;45.508;12.232;2023-02-03T12:36:35;13.50;99.90
14008;DHT22;61651;45.508;12.232;2023-02-03T12:39:43;13.50;99.90
14008;DHT22;61651;45.508;12.232;2023-02-03T12:42:51;13.60;99.90
14008;DHT22;61651;45.508;12.232;2023-02-03T12:46:00;13.60;99.90
14008;DHT22;61651;45.508;12.232;2023-02-03T12:49:11;13.50;99.90
14008;DHT22;61651;45.508;12.232;2023-02-03T12:52:22;13.50;99.90
14008;DHT22;61651;45.508;12.232;2023-02-03T12:55:31;13.50;99.90
14008;DHT22;61651;45.508;12.232;2023-02-03T12:58:37;13.60;99.90
14008;DHT22;61651;45.508;12.232;2023-02-03T13:01:46;13.50;99.90
14008;DHT22;61651;45.508;12.232;2023-02-03T13:04:53;13.50;99.90
14008;DHT22;61651;45.508;12.232;2023-02-03T13:08:06;13.50;99.90
14008;DHT22;61651;45.508;12.232;2023-02-03T13:11:19;13.50;99.90
14008;DHT22;61651;45.508;12.232;2023-02-03T13:14:28;13.50;99.90
14008;DHT22;61651;45.508;12.232;2023-02-03T13:17:36;13.50;99.90
14008;DHT22;61651;45.508;12.232;2023-02-03T13:20:44;13.40;99.90
14008;DHT22;61651;45.508;12.232;2023-02-03T13:23:48;13.50;99.90
14008;DHT22;61651;45.508;12.232;2023-02-03T13:27:06;13.40;99.90
14008;DHT22;61651;45.508;12.232;2023-02-03T13:30:38;13.40;99.90
14008;DHT22;61651;45.508;12.232;2023-02-03T13:33:56;13.40;99.90
14008;DHT22;61651;45.508;12.232;2023-02-03T13:37:23;13.40;99.90
14008;DHT22;61651;45.508;12.232;2023-02-03T13:40:39;13.50;99.90
14008;DHT22;61651;45.508;12.232;2023-02-03T13:43:48;13.40;99.90
14008;DHT22;61651;45.508;12.232;2023-02-03T13:46:51;13.40;99.90
14008;DHT22;61651;45.508;12.232;2023-02-03T13:49:55;13.50;99.90
14008;DHT22;61651;45.508;12.232;2023-02-03T13:53:01;13.50;99.90
14008;DHT22;61651;45.508;12.232;2023-02-03T13:56:06;13.50;99.90
14008;DHT22;61651;45.508;12.232;2023-02-03T13:59:27;13.50;99.90
14008;DHT22;61651;45.508;12.232;2023-02-03T14:02:52;13.50;99.90
14008;DHT22;61651;45.508;12.232;2023-02-03T14:05:55;13.50;99.90
14008;DHT22;61651;45.508;12.232;2023-02-03T14:08:58;13.50;99.90
14008;DHT22;61651;45.508;12.232;2023-02-03T14:12:31;13.50;99.90
14008;DHT22;61651;45.508;12.232;2023-02-03T14:15:34;13.50;99.90
14008;DHT22;61651;45.508;12.232;2023-02-03T14:18:43;13.50;99.90
14008;DHT22;61651;45.508;12.232;2023-02-03T14:21:47;13.40;99.90
14008;DHT22;61651;45.508;12.232;2023-02-03T14:24:51;13.40;99.90
14008;DHT22;61651;45.508;12.232;2023-02-03T14:27:59;13.40;99.90
14008;DHT22;61651;45.508;12.232;2023-02-03T14:31:12;13.40;99.90
14008;DHT22;61651;45.508;12.232;2023-02-03T14:34:16;13.40;99.90
14008;DHT22;61651;45.508;12.232;2023-02-03T14:37:21;13.40;99.90
14008;DHT22;61651;45.508;12.232;2023-02-03T14:40:34;13.40;99.90
14008;DHT22;61651;45.508;12.232;2023-02-03T14:43:51;13.40;99.90
14008;DHT22;61651;45.508;12.232;2023-02-03T14:47:04;13.50;99.90
14008;DHT22;61651;45.508;12.232;2023-02-03T14:50:28;13.50;99.90
14008;DHT22;61651;45.508;12.232;2023-02-03T14:54:07;13.40;99.90
14008;DHT22;61651;45.508;12.232;2023-02-03T14:57:21;13.30;99.90
14008;DHT22;61651;45.508;12.232;2023-02-03T15:00:31;13.20;99.90
14008;DHT22;61651;45.508;12.232;2023-02-03T15:03:34;13.30;99.90
14008;DHT22;61651;45.508;12.232;2023-02-03T15:06:42;13.10;99.90
14008;DHT22;61651;45.508;12.232;2023-02-03T15:09:46;13.00;99.90
14008;DHT22;61651;45.508;12.232;2023-02-03T15:12:52;12.80;99.90
14008;DHT22;61651;45.508;12.232;2023-02-03T15:15:57;12.60;99.90
14008;DHT22;61651;45.508;12.232;2023-02-03T15:19:00;12.50;99.90
14008;DHT22;61651;45.508;12.232;2023-02-03T15:22:20;12.40;99.90
14008;DHT22;61651;45.508;12.232;2023-02-03T15:25:23;12.10;99.90
14008;DHT22;61651;45.508;12.232;2023-02-03T15:28:27;11.90;99.90
14008;DHT22;61651;45.508;12.232;2023-02-03T15:31:35;11.80;99.90
14008;DHT22;61651;45.508;12.232;2023-02-03T15:34:40;11.80;99.90
14008;DHT22;61651;45.508;12.232;2023-02-03T15:37:46;11.60;99.90
14008;DHT22;61651;45.508;12.232;2023-02-03T15:40:53;11.40;99.90
14008;DHT22;61651;45.508;12.232;2023-02-03T15:44:01;11.20;99.90
14008;DHT22;61651;45.508;12.232;2023-02-03T15:47:16;11.00;99.90
14008;DHT22;61651;45.508;12.232;2023-02-03T15:50:29;10.90;99.90
14008;DHT22;61651;45.508;12.232;2023-02-03T15:53:39;10.70;99.90
14008;DHT22;61651;45.508;12.232;2023-02-03T15:56:45;10.60;99.90
14008;DHT22;61651;45.508;12.232;2023-02-03T15:59:56;10.50;99.90
14008;DHT22;61651;45.508;12.232;2023-02-03T16:03:01;10.50;99.90
14008;DHT22;61651;45.508;12.232;2023-02-03T16:06:07;10.50;99.90
14008;DHT22;61651;45.508;12.232;2023-02-03T16:09:26;10.60;99.90
14008;DHT22;61651;45.508;12.232;2023-02-03T16:12:29;10.40;99.90
14008;DHT22;61651;45.508;12.232;2023-02-03T16:15:32;10.20;99.90
14008;DHT22;61651;45.508;12.232;2023-02-03T16:18:36;10.00;99.90
14008;DHT22;61651;45.508;12.232;2023-02-03T16:21:50;10.10;99.90
14008;DHT22;61651;45.508;12.232;2023-02-03T16:24:53;10.20;99.90
14008;DHT22;61651;45.508;12.232;2023-02-03T16:27:56;10.50;99.90
14008;DHT22;61651;45.508;12.232;2023-02-03T16:31:17;10.70;99.90
14008;DHT22;61651;45.508;12.232;2023-02-03T16:34:38;10.90;99.90
14008;DHT22;61651;45.508;12.232;2023-02-03T16:38:04;10.90;99.90
14008;DHT22;61651;45.508;12.232;2023-02-03T16:41:24;11.00;99.90
14008;DHT22;61651;45.508;12.232;2023-02-03T16:44:44;11.00;99.90
14008;DHT22;61651;45.508;12.232;2023-02-03T16:48:04;11.00;99.90
14008;DHT22;61651;45.508;12.232;2023-02-03T16:51:28;10.70;99.90
14008;DHT22;61651;45.508;12.232;2023-02-03T16:54:33;10.40;99.90
14008;DHT22;61651;45.508;12.232;2023-02-03T16:57:35;10.10;99.90
14008;DHT22;61651;45.508;12.232;2023-02-03T17:00:37;9.70;99.90
14008;DHT22;61651;45.508;12.232;2023-02-03T17:03:40;9.40;99.90
14008;DHT22;61651;45.508;12.232;2023-02-03T17:06:45;9.50;99.90
14008;DHT22;61651;45.508;12.232;2023-02-03T17:09:50;9.50;99.90
14008;DHT22;61651;45.508;12.232;2023-02-03T17:12:52;9.20;99.90
14008;DHT22;61651;45.508;12.232;2023-02-03T17:15:54;9.20;99.90
14008;DHT22;61651;45.508;12.232;2023-02-03T17:18:57;9.30;99.90
14008;DHT22;61651;45.508;12.232;2023-02-03T17:22:01;9.60;99.90
14008;DHT22;61651;45.508;12.232;2023-02-03T17:25:03;9.80;99.90
14008;DHT22;61651;45.508;12.232;2023-02-03T17:28:07;9.60;99.90
14008;DHT22;61651;45.508;12.232;2023-02-03T17:31:12;9.30;99.90
14008;DHT22;61651;45.508;12.232;2023-02-03T17:34:14;9.20;99.90
14008;DHT22;61651;45.508;12.232;2023-02-03T17:37:18;9.20;99.90
14008;DHT22;61651;45.508;12.232;2023-02-03T17:40:20;9.20;99.90
14008;DHT22;61651;45.508;12.232;2023-02-03T17:43:22;9.20;99.90
14008;DHT22;61651;45.508;12.232;2023-02-03T17:46:24;9.30;99.90
14008;DHT22;61651;45.508;12.232;2023-02-03T17:49:27;9.30;99.90
14008;DHT22;61651;45.508;12.232;2023-02-03T17:52:30;9.50;99.90
14008;DHT22;61651;45.508;12.232;2023-02-03T17:55:32;9.70;99.90
14008;DHT22;61651;45.508;12.232;2023-02-03T17:58:34;9.90;99.90
14008;DHT22;61651;45.508;12.232;2023-02-03T18:01:36;10.00;99.90
14008;DHT22;61651;45.508;12.232;2023-02-03T18:04:39;10.00;99.90
14008;DHT22;61651;45.508;12.232;2023-02-03T18:07:43;10.10;99.90
14008;DHT22;61651;45.508;12.232;2023-02-03T18:10:45;10.10;99.90
14008;DHT22;61651;45.508;12.232;2023-02-03T18:13:48;10.10;99.90
14008;DHT22;61651;45.508;12.232;2023-02-03T18:16:50;10.10;99.90
14008;DHT22;61651;45.508;12.232;2023-02-03T18:19:52;10.10;99.90
14008;DHT22;61651;45.508;12.232;2023-02-03T18:22:56;10.00;99.90
14008;DHT22;61651;45.508;12.232;2023-02-03T18:25:58;9.90;99.90
14008;DHT22;61651;45.508;12.232;2023-02-03T18:29:01;9.90;99.90
14008;DHT22;61651;45.508;12.232;2023-02-03T18:32:04;9.80;99.90
14008;DHT22;61651;45.508;12.232;2023-02-03T18:35:06;9.80;99.90
14008;DHT22;61651;45.508;12.232;2023-02-03T18:38:14;9.80;99.90
14008;DHT22;61651;45.508;12.232;2023-02-03T18:41:18;9.80;99.90
14008;DHT22;61651;45.508;12.232;2023-02-03T18:44:21;9.80;99.90
14008;DHT22;61651;45.508;12.232;2023-02-03T18:47:25;9.80;99.90
14008;DHT22;61651;45.508;12.232;2023-02-03T18:50:27;9.70;99.90
14008;DHT22;61651;45.508;12.232;2023-02-03T18:53:30;9.50;99.90
14008;DHT22;61651;45.508;12.232;2023-02-03T18:56:32;9.20;99.90
14008;DHT22;61651;45.508;12.232;2023-02-03T18:59:35;9.00;99.90
14008;DHT22;61651;45.508;12.232;2023-02-03T19:02:37;9.00;99.90
14008;DHT22;61651;45.508;12.232;2023-02-03T19:05:39;8.80;99.90
14008;DHT22;61651;45.508;12.232;2023-02-03T19:08:43;8.70;99.90
14008;DHT22;61651;45.508;12.232;2023-02-03T19:11:45;8.70;99.90
14008;DHT22;61651;45.508;12.232;2023-02-03T19:14:47;8.70;99.90
14008;DHT22;61651;45.508;12.232;2023-02-03T19:17:49;8.60;99.90
14008;DHT22;61651;45.508;12.232;2023-02-03T19:20:51;8.50;99.90
14008;DHT22;61651;45.508;12.232;2023-02-03T19:23:54;8.70;99.90
14008;DHT22;61651;45.508;12.232;2023-02-03T19:26:56;8.80;99.90
14008;DHT22;61651;45.508;12.232;2023-02-03T19:29:58;8.80;99.90